Terminal Aerodrome Forecast
Issued by NWS

Home | Current Version | Previous Version | Text Only | Print | Product List | Glossary On
Versions: 1 2 3 4 5 6 7 8 9 10 11 12 13 14 15 16 17 18 19 20 21 22 23 24 25 26 27 28
000
FTUS45 KFGZ 181700 AAA
TAFSEZ
TAF AMD
KSEZ 181749Z 1818/1918 VRB06KT P6SM BKN015 BKN050
      TEMPO 1818/1820 -DZRA SCT015 BKN045
     FM182000 VRB06KT P6SM FEW015 BKN050
     FM190300 05006KT P6SM FEW050
     FM191500 VRB05KT P6SM FEW080=

USA.gov is the U.S. government's official web portal to all federal, state and local government web resources and services.